Terminal Aerodrome Forecast
Issued by NWS

Home | Current Version | Previous Version | Text Only | Print | Product List | Glossary On
Versions: 1 2 3 4 5 6 7 8 9 10 11 12 13 14 15
000
FTUS41 KBTV 010521
TAFSLK
TAF
KSLK 010521Z 0106/0206 VRB02KT P6SM SKC
     FM010900 VRB02KT P6SM BKN150
     FM011300 20005KT P6SM OVC060
     FM011700 21008KT 1 1/2SM -SN BR OVC015=

USA.gov is the U.S. government's official web portal to all federal, state and local government web resources and services.